Time;durP1;ratioP1;P1;durP2;ratioP2;P2;SDS_P1;SDS_P2;PMS_P1;PMS_P2;Temp;Humidity;BMP_temperature;BMP_pressure;BME280_temperature;BME280_humidity;BME280_pressure;Samples;Min_cycle;Max_cycle;Signal;HPM_P1;HPM_P2
2022/10/06 00:00:39;;;;;;;3.00;2.50;;;;;;;17.75;100.00;97194.91;5041544;28;20044;-48
2022/10/06 00:03:07;;;;;;;3.55;2.88;;;;;;;17.76;100.00;97189.44;5038892;28;20091;-45
2022/10/06 00:05:35;;;;;;;3.45;2.72;;;;;;;17.69;100.00;97196.44;5039903;28;20107;-45
2022/10/06 00:08:04;;;;;;;5.13;3.10;;;;;;;17.68;100.00;97196.59;5039579;28;20088;-45
2022/10/06 00:10:37;;;;;;;3.75;2.80;;;;;;;17.69;100.00;97198.28;5040383;28;20076;-48
2022/10/06 00:13:07;;;;;;;3.55;2.75;;;;;;;17.71;100.00;97206.94;5038046;28;20643;-45
2022/10/06 00:15:35;;;;;;;5.07;2.60;;;;;;;17.58;100.00;97211.97;5039900;28;20079;-46
2022/10/06 00:18:04;;;;;;;3.45;2.58;;;;;;;17.62;100.00;97202.59;5038867;28;20084;-48
2022/10/06 00:20:32;;;;;;;4.38;2.92;;;;;;;17.58;100.00;97203.97;5041156;28;20095;-46
2022/10/06 00:23:01;;;;;;;3.28;2.63;;;;;;;17.44;100.00;97200.16;5037004;28;20076;-50
2022/10/06 00:25:29;;;;;;;3.85;3.05;;;;;;;17.37;100.00;97207.16;5040916;28;20139;-48
2022/10/06 00:27:57;;;;;;;4.32;2.80;;;;;;;17.21;100.00;97221.38;5036974;28;20088;-49
2022/10/06 00:30:30;;;;;;;4.00;2.92;;;;;;;17.40;100.00;97209.50;5041980;28;20064;-48
2022/10/06 00:33:00;;;;;;;4.97;2.92;;;;;;;17.07;100.00;97212.19;5037015;28;20152;-45
2022/10/06 00:35:32;;;;;;;4.53;3.20;;;;;;;17.01;100.00;97221.69;5045135;28;20099;-47
2022/10/06 00:38:01;;;;;;;5.25;3.05;;;;;;;17.01;100.00;97215.53;5042547;28;20084;-43
2022/10/06 00:40:30;;;;;;;3.05;2.75;;;;;;;17.08;100.00;97217.34;5045010;28;20561;-44
2022/10/06 00:43:00;;;;;;;5.32;3.15;;;;;;;17.09;100.00;97220.84;5044548;28;20084;-48
2022/10/06 00:45:33;;;;;;;4.00;3.00;;;;;;;17.20;100.00;97223.16;5039273;28;20132;-45
2022/10/06 00:48:05;;;;;;;3.88;3.08;;;;;;;17.17;100.00;97225.34;5038755;28;20604;-43
2022/10/06 00:50:33;;;;;;;4.35;2.97;;;;;;;17.08;100.00;97221.84;5038182;28;20514;-47
2022/10/06 00:53:02;;;;;;;7.72;3.17;;;;;;;17.12;100.00;97223.19;5036250;28;20127;-47
2022/10/06 00:55:30;;;;;;;6.05;2.72;;;;;;;17.19;100.00;97229.50;5040925;28;20539;-50
2022/10/06 00:57:59;;;;;;;3.65;2.83;;;;;;;17.23;100.00;97224.69;5038031;28;20547;-48
2022/10/06 01:00:28;;;;;;;3.67;2.80;;;;;;;17.01;100.00;97221.69;5040674;28;20080;-44
2022/10/06 01:03:01;;;;;;;3.72;2.70;;;;;;;17.14;100.00;97229.19;5036384;28;20658;-47
2022/10/06 01:05:32;;;;;;;4.47;3.13;;;;;;;17.09;100.00;97226.19;5037861;28;20145;-50
2022/10/06 01:08:00;;;;;;;;;;;;;;;17.21;100.00;97230.19;5038268;28;20080;-47
2022/10/06 01:10:28;;;;;;;5.38;2.60;;;;;;;16.91;100.00;97223.69;5040376;28;19956;-46
2022/10/06 01:12:57;;;;;;;4.97;3.72;;;;;;;16.98;100.00;97231.84;5035933;28;20664;-46
2022/10/06 01:15:25;;;;;;;5.00;3.50;;;;;;;16.98;100.00;97226.50;5037785;28;20208;-49
2022/10/06 01:17:55;;;;;;;4.07;3.58;;;;;;;16.82;100.00;97220.16;5037595;28;20085;-45
2022/10/06 01:20:25;;;;;;;4.35;3.65;;;;;;;16.89;100.00;97219.50;5037212;28;20141;-47
2022/10/06 01:22:57;;;;;;;3.90;3.50;;;;;;;16.88;100.00;97225.84;5037561;28;20494;-45
2022/10/06 01:25:25;;;;;;;7.22;3.40;;;;;;;16.87;100.00;97224.19;5038645;28;20087;-47
2022/10/06 01:27:55;;;;;;;4.82;3.88;;;;;;;16.91;100.00;97231.66;5038079;28;20084;-50
2022/10/06 01:30:26;;;;;;;4.15;3.40;;;;;;;16.99;100.00;97226.34;5040321;28;20076;-42
2022/10/06 01:32:54;;;;;;;4.10;3.40;;;;;;;16.95;100.00;97227.66;5037235;28;20089;-46
2022/10/06 01:35:22;;;;;;;4.63;3.65;;;;;;;17.01;100.00;97223.53;5037735;28;20173;-46
2022/10/06 01:37:51;;;;;;;4.25;3.65;;;;;;;16.99;100.00;97237.00;5041394;28;20476;-47
2022/10/06 01:40:20;;;;;;;8.90;3.50;;;;;;;17.07;100.00;97233.53;5037389;28;20159;-48
2022/10/06 01:42:48;;;;;;;5.40;3.53;;;;;;;17.04;100.00;97240.00;5038645;28;20085;-43
2022/10/06 01:45:17;;;;;;;5.18;3.30;;;;;;;17.05;100.00;97240.84;5039738;28;20092;-41
2022/10/06 01:47:45;;;;;;;5.05;3.47;;;;;;;17.11;100.00;97247.34;5039607;28;20087;-44
2022/10/06 01:50:13;;;;;;;3.65;3.33;;;;;;;17.09;100.00;97245.66;5035357;28;20072;-44
2022/10/06 01:52:41;;;;;;;4.10;3.40;;;;;;;17.02;100.00;97249.16;5038617;28;20776;-45
2022/10/06 01:55:10;;;;;;;4.15;3.63;;;;;;;16.94;100.00;97249.16;5040608;28;20084;-44
2022/10/06 01:57:40;;;;;;;5.53;3.65;;;;;;;17.02;100.00;97254.50;5039682;28;20998;-45
2022/10/06 02:00:09;;;;;;;7.55;3.72;;;;;;;17.03;100.00;97251.69;5039041;28;20076;-45
2022/10/06 02:02:38;;;;;;;4.18;3.50;;;;;;;16.95;100.00;97248.16;5042476;28;20099;-44
2022/10/06 02:05:06;;;;;;;4.93;4.03;;;;;;;16.90;100.00;97255.81;5042396;28;20095;-46
2022/10/06 02:07:35;;;;;;;3.80;3.42;;;;;;;16.63;100.00;97260.41;5042293;28;20132;-46
2022/10/06 02:10:04;;;;;;;4.47;3.67;;;;;;;16.78;100.00;97264.13;5041352;28;20100;-48
2022/10/06 02:12:34;;;;;;;5.60;3.95;;;;;;;16.76;100.00;97266.13;5043738;28;20084;-50
2022/10/06 02:15:05;;;;;;;4.32;3.78;;;;;;;16.84;100.00;97268.78;5040510;28;20103;-47
2022/10/06 02:17:33;;;;;;;4.35;3.95;;;;;;;16.68;100.00;97260.72;5041214;28;20073;-44
2022/10/06 02:20:01;;;;;;;8.50;3.50;;;;;;;16.69;100.00;97265.09;5040913;28;20095;-51
2022/10/06 02:22:30;;;;;;;3.70;3.40;;;;;;;16.66;100.00;97265.41;5045539;28;20531;-45
2022/10/06 02:24:58;;;;;;;7.88;3.47;;;;;;;16.64;100.00;97270.06;5039926;28;20100;-49
2022/10/06 02:27:26;;;;;;;4.00;3.60;;;;;;;16.73;100.00;97270.91;5043625;28;20080;-46
2022/10/06 02:29:54;;;;;;;4.35;3.63;;;;;;;16.65;100.00;97273.53;5040719;28;20095;-45
2022/10/06 02:32:24;;;;;;;5.25;3.50;;;;;;;16.80;100.00;97272.78;5043525;28;20219;-46
2022/10/06 02:34:54;;;;;;;5.33;3.90;;;;;;;16.78;100.00;97274.78;5045552;28;20466;-45
2022/10/06 02:37:22;;;;;;;6.45;3.40;;;;;;;16.91;100.00;97278.81;5040037;28;20420;-45
2022/10/06 02:39:51;;;;;;;5.78;3.55;;;;;;;16.76;100.00;97286.59;5044338;28;20080;-45
2022/10/06 02:42:19;;;;;;;4.20;3.80;;;;;;;16.66;100.00;97276.06;5043126;28;20089;-44
2022/10/06 02:44:48;;;;;;;5.18;3.40;;;;;;;16.72;100.00;97280.72;5037446;28;20140;-43
2022/10/06 02:47:16;;;;;;;3.78;3.40;;;;;;;16.69;100.00;97281.06;5040349;28;20087;-43
2022/10/06 02:49:46;;;;;;;4.18;3.60;;;;;;;16.83;100.00;97282.28;5043918;28;20499;-51
2022/10/06 02:52:14;;;;;;;4.67;3.60;;;;;;;16.55;100.00;97282.53;5043208;28;20084;-50
2022/10/06 02:54:43;;;;;;;3.78;3.45;;;;;;;16.69;100.00;97288.19;5041488;28;20575;-48
2022/10/06 02:57:11;;;;;;;5.13;3.50;;;;;;;16.82;100.00;97285.94;5041154;28;20077;-45
2022/10/06 02:59:39;;;;;;;3.78;3.38;;;;;;;16.48;100.00;97276.19;5044345;28;20084;-47
2022/10/06 03:02:07;;;;;;;4.03;3.25;;;;;;;16.41;100.00;97288.44;5044465;28;20084;-45
2022/10/06 03:04:36;;;;;;;4.18;3.40;;;;;;;16.59;100.00;97291.03;5043797;28;20160;-46
2022/10/06 03:07:05;;;;;;;4.25;3.53;;;;;;;16.67;100.00;97299.03;5043656;28;20136;-46
2022/10/06 03:09:33;;;;;;;3.50;3.20;;;;;;;16.70;100.00;97298.72;5045106;28;20088;-47
2022/10/06 03:12:02;;;;;;;3.50;3.20;;;;;;;16.63;100.00;97296.84;5043451;28;20095;-47
2022/10/06 03:14:30;;;;;;;6.55;2.90;;;;;;;16.88;100.00;97306.59;5042886;28;20565;-49
2022/10/06 03:16:58;;;;;;;6.90;3.40;;;;;;;17.07;100.00;97300.16;5042672;28;20103;-45
2022/10/06 03:19:26;;;;;;;6.50;3.28;;;;;;;17.11;100.00;97293.50;5043361;28;20562;-43
2022/10/06 03:21:55;;;;;;;3.47;3.17;;;;;;;17.14;100.00;97305.66;5042290;28;20080;-47
2022/10/06 03:24:24;;;;;;;4.15;3.00;;;;;;;17.31;100.00;97300.16;5043678;28;20550;-44
2022/10/06 03:26:52;;;;;;;4.57;3.08;;;;;;;17.07;100.00;97313.47;5044059;28;20494;-46
2022/10/06 03:29:21;;;;;;;4.25;3.00;;;;;;;16.76;100.00;97311.41;5042622;28;20084;-51
2022/10/06 03:31:49;;;;;;;4.72;3.13;;;;;;;16.97;100.00;97315.47;5043214;28;20088;-46
2022/10/06 03:34:17;;;;;;;3.47;2.92;;;;;;;16.58;100.00;97315.97;5043556;28;20076;-46
2022/10/06 03:36:46;;;;;;;3.33;2.92;;;;;;;16.88;100.00;97316.44;5043533;28;20482;-46
2022/10/06 03:39:14;;;;;;;5.38;3.00;;;;;;;16.92;100.00;97328.41;5040341;28;20084;-48
2022/10/06 03:41:43;;;;;;;5.78;3.30;;;;;;;17.33;100.00;97321.31;5042609;28;20092;-46
2022/10/06 03:44:12;;;;;;;4.10;3.20;;;;;;;17.19;100.00;97322.81;5041909;28;20156;-44
2022/10/06 03:46:40;;;;;;;6.18;3.10;;;;;;;16.83;100.00;97331.06;5043442;28;20183;-45
2022/10/06 03:49:08;;;;;;;4.22;3.35;;;;;;;17.30;100.00;97330.47;5042919;28;20163;-47
2022/10/06 03:51:38;;;;;;;6.50;3.10;;;;;;;17.38;100.00;97334.13;5041835;28;20092;-45
2022/10/06 03:54:09;;;;;;;4.72;3.15;;;;;;;17.37;100.00;97327.97;5041587;28;20072;-50
2022/10/06 03:56:39;;;;;;;4.03;3.22;;;;;;;16.78;100.00;97332.53;5044351;28;20072;-49
2022/10/06 03:59:10;;;;;;;6.57;3.30;;;;;;;17.32;100.00;97339.16;5042802;28;20079;-48
2022/10/06 04:01:40;;;;;;;8.23;3.42;;;;;;;17.33;100.00;97340.81;5043376;28;20072;-48
2022/10/06 04:04:09;;;;;;;4.03;3.17;;;;;;;17.32;100.00;97336.47;5040873;28;20553;-45
2022/10/06 04:06:39;;;;;;;3.78;3.20;;;;;;;17.35;100.00;97345.16;5036777;28;20589;-50
2022/10/06 04:09:09;;;;;;;5.30;3.30;;;;;;;17.31;100.00;97340.16;5041401;28;20157;-46
2022/10/06 04:11:43;;;;;;;6.25;3.20;;;;;;;17.35;100.00;97347.81;5039632;28;20140;-43
2022/10/06 04:14:15;;;;;;;5.22;3.60;;;;;;;17.08;100.00;97347.13;5040964;28;20527;-49
2022/10/06 04:16:44;;;;;;;5.25;3.08;;;;;;;17.28;100.00;97351.16;5040088;28;20111;-47
2022/10/06 04:19:14;;;;;;;3.70;3.40;;;;;;;17.21;100.00;97355.47;5039587;28;20130;-47
2022/10/06 04:21:44;;;;;;;4.30;3.10;;;;;;;17.36;100.00;97347.66;5048378;28;20076;-50
2022/10/06 04:24:12;;;;;;;4.68;3.35;;;;;;;17.28;100.00;97353.81;5049740;28;20491;-48
2022/10/06 04:26:43;;;;;;;3.95;3.42;;;;;;;17.26;100.00;97350.47;5049886;28;20091;-50
2022/10/06 04:29:13;;;;;;;3.50;3.20;;;;;;;17.36;100.00;97355.66;5049799;28;20099;-47
2022/10/06 04:31:42;;;;;;;3.45;3.15;;;;;;;17.32;100.00;97364.97;5044227;28;20081;-45
2022/10/06 04:34:12;;;;;;;3.40;3.10;;;;;;;17.31;100.00;97364.16;5043873;28;20519;-45
2022/10/06 04:36:41;;;;;;;7.17;3.30;;;;;;;17.22;100.00;97372.28;5050162;28;20482;-47
2022/10/06 04:39:11;;;;;;;4.18;3.08;;;;;;;17.27;100.00;97368.16;5049683;28;20115;-45
2022/10/06 04:41:40;;;;;;;4.20;3.30;;;;;;;17.26;100.00;97371.78;5043764;28;20088;-48
2022/10/06 04:44:09;;;;;;;4.87;3.50;;;;;;;17.37;100.00;97367.97;5045435;28;20084;-48
2022/10/06 04:46:38;;;;;;;5.80;3.47;;;;;;;17.41;100.00;97372.00;5050387;28;21365;-43
2022/10/06 04:49:12;;;;;;;4.65;3.40;;;;;;;17.24;100.00;97373.81;5049688;28;20076;-44
2022/10/06 04:51:47;;;;;;;5.10;3.10;;;;;;;16.71;100.00;97372.28;5049703;28;20103;-46
2022/10/06 04:54:16;;;;;;;5.05;3.20;;;;;;;16.95;100.00;97376.88;5049480;28;20069;-47
2022/10/06 04:56:44;;;;;;;5.45;3.40;;;;;;;17.24;100.00;97384.47;5049811;28;20480;-48
2022/10/06 04:59:12;;;;;;;3.70;3.40;;;;;;;17.33;100.00;97382.63;5048505;28;20099;-45
2022/10/06 05:01:42;;;;;;;5.20;3.55;;;;;;;17.37;100.00;97389.31;5049679;28;20440;-45
2022/10/06 05:04:10;;;;;;;3.72;3.25;;;;;;;17.17;100.00;97390.59;5049455;28;20053;-45
2022/10/06 05:06:40;;;;;;;5.97;3.28;;;;;;;17.24;100.00;97392.47;5049437;28;20076;-45
2022/10/06 05:09:10;;;;;;;4.03;3.42;;;;;;;17.19;100.00;97393.94;5049327;28;20485;-48
2022/10/06 05:11:38;;;;;;;4.20;3.13;;;;;;;17.15;100.00;97400.59;5049540;28;20654;-44
2022/10/06 05:14:08;;;;;;;3.70;3.40;;;;;;;17.03;100.00;97400.91;5049349;28;20064;-45
2022/10/06 05:16:37;;;;;;;4.95;3.25;;;;;;;17.06;100.00;97395.22;5049976;28;20087;-46
2022/10/06 05:19:07;;;;;;;8.30;3.50;;;;;;;17.10;100.00;97401.06;5049110;28;20530;-47
2022/10/06 05:21:36;;;;;;;5.70;3.50;;;;;;;17.05;100.00;97400.75;5049229;28;20531;-48
2022/10/06 05:24:04;;;;;;;6.00;3.20;;;;;;;17.01;100.00;97402.91;5045111;28;20081;-46
2022/10/06 05:26:34;;;;;;;3.80;3.47;;;;;;;17.03;100.00;97406.25;5048577;28;20072;-44
2022/10/06 05:29:03;;;;;;;3.55;3.10;;;;;;;16.97;100.00;97417.53;5044421;28;20064;-45
2022/10/06 05:31:33;;;;;;;4.45;3.20;;;;;;;16.91;100.00;97417.34;5049049;28;20085;-44
2022/10/06 05:34:02;;;;;;;;;;;;;;;17.02;100.00;97420.53;5049528;28;20112;-47
2022/10/06 05:36:32;;;;;;;6.60;3.30;;;;;;;16.74;100.00;97424.41;5049208;28;19966;-48
2022/10/06 05:39:01;;;;;;;3.88;3.15;;;;;;;16.79;100.00;97430.09;5038755;28;20080;-46
2022/10/06 05:41:31;;;;;;;4.03;3.50;;;;;;;16.85;100.00;97432.13;5048643;28;20096;-47
2022/10/06 05:44:00;;;;;;;3.53;3.22;;;;;;;16.89;100.00;97435.31;5047944;28;20499;-45
2022/10/06 05:46:29;;;;;;;3.45;3.10;;;;;;;16.93;100.00;97436.66;5048966;28;20084;-50
2022/10/06 05:48:59;;;;;;;5.72;3.45;;;;;;;16.92;100.00;97435.81;5049043;28;20080;-51
2022/10/06 05:51:31;;;;;;;5.47;3.60;;;;;;;16.95;100.00;97429.34;5043634;28;20088;-47
2022/10/06 05:53:59;;;;;;;3.83;3.10;;;;;;;16.86;100.00;97436.47;5048905;28;20096;-48
2022/10/06 05:56:29;;;;;;;5.50;3.50;;;;;;;16.97;100.00;97446.03;5048844;28;20085;-51
2022/10/06 05:58:58;;;;;;;6.50;3.60;;;;;;;17.05;100.00;97452.22;5048221;28;20093;-46
2022/10/06 06:01:27;;;;;;;6.90;3.80;;;;;;;17.22;100.00;97453.09;5048636;28;20084;-44
2022/10/06 06:03:58;;;;;;;5.18;3.60;;;;;;;17.31;100.00;97456.63;5048270;28;20084;-47
2022/10/06 06:06:28;;;;;;;6.13;3.67;;;;;;;17.29;100.00;97458.63;5045228;28;20095;-47
2022/10/06 06:08:59;;;;;;;7.15;3.72;;;;;;;17.37;100.00;97463.97;5048708;28;20079;-49
2022/10/06 06:11:30;;;;;;;5.70;3.50;;;;;;;17.58;100.00;97460.84;5048069;28;20080;-49
2022/10/06 06:13:58;;;;;;;;;;;;;;;17.87;100.00;97470.28;5048811;28;20081;-47
2022/10/06 06:16:27;;;;;;;6.18;3.50;;;;;;;17.87;100.00;97475.59;5047167;28;19956;-52
2022/10/06 06:18:56;;;;;;;5.00;3.55;;;;;;;17.97;100.00;97484.28;5048157;28;20076;-47
2022/10/06 06:21:25;;;;;;;4.22;3.38;;;;;;;18.09;100.00;97480.28;5048907;28;20783;-49
2022/10/06 06:23:53;;;;;;;8.48;3.67;;;;;;;18.21;100.00;97494.16;5048350;28;20485;-45
2022/10/06 06:26:24;;;;;;;4.40;3.15;;;;;;;18.41;100.00;97490.13;5048881;28;20076;-46
2022/10/06 06:28:53;;;;;;;5.25;3.28;;;;;;;18.54;100.00;97492.25;5048419;28;20113;-46
2022/10/06 06:31:25;;;;;;;8.48;3.80;;;;;;;18.74;100.00;97490.09;5048626;28;20504;-48
2022/10/06 06:33:55;;;;;;;3.83;3.30;;;;;;;18.84;100.00;97504.09;5045881;28;20095;-44
2022/10/06 06:36:24;;;;;;;6.78;4.00;;;;;;;18.53;100.00;97501.28;5035573;28;20093;-48
2022/10/06 06:38:55;;;;;;;6.80;3.93;;;;;;;18.95;100.00;97505.56;5048176;28;20558;-49
2022/10/06 06:41:27;;;;;;;4.47;3.50;;;;;;;18.70;100.00;97513.63;5047905;28;20490;-48
2022/10/06 06:43:55;;;;;;;6.28;3.40;;;;;;;18.90;100.00;97511.44;5045037;28;20073;-47
2022/10/06 06:46:25;;;;;;;5.80;3.33;;;;;;;19.24;100.00;97510.31;5049049;28;20072;-52
2022/10/06 06:48:54;;;;;;;5.68;3.42;;;;;;;19.59;100.00;97518.84;5050133;28;20071;-49
2022/10/06 06:51:23;;;;;;;5.20;3.40;;;;;;;19.83;100.00;97523.28;5051584;28;20081;-45
2022/10/06 06:53:51;;;;;;;6.50;3.75;;;;;;;19.95;100.00;97526.38;5052050;28;20107;-49
2022/10/06 06:56:21;;;;;;;6.40;3.25;;;;;;;20.17;100.00;97538.94;5050632;28;20072;-46
2022/10/06 06:58:50;;;;;;;5.20;3.30;;;;;;;19.94;100.00;97533.56;5052006;28;20084;-50
2022/10/06 07:01:20;;;;;;;5.27;3.33;;;;;;;20.30;100.00;97536.50;5051333;28;20093;-49
2022/10/06 07:03:52;;;;;;;5.03;3.50;;;;;;;20.25;100.00;97528.16;5051641;28;20095;-45
2022/10/06 07:06:27;;;;;;;5.93;3.17;;;;;;;20.02;100.00;97549.56;5051973;28;20076;-49
2022/10/06 07:08:57;;;;;;;5.40;2.90;;;;;;;19.07;100.00;97551.50;5052329;28;20175;-44
2022/10/06 07:11:27;;;;;;;7.30;3.17;;;;;;;19.26;100.00;97552.94;5051307;28;20179;-43
2022/10/06 07:14:00;;;;;;;6.50;3.20;;;;;;;19.27;100.00;97566.16;5051759;28;20451;-45
2022/10/06 07:25:10;;;;;;;5.97;3.20;;;;;;;19.69;100.00;97562.31;5051622;28;20091;-50
2022/10/06 07:27:41;;;;;;;7.70;3.30;;;;;;;20.60;100.00;97566.09;5047322;28;20092;-48
2022/10/06 07:30:17;;;;;;;6.18;3.03;;;;;;;20.69;100.00;97561.50;5041600;28;20088;-45
2022/10/06 07:32:46;;;;;;;5.72;3.00;;;;;;;20.47;100.00;97579.22;5043862;28;20087;-48
2022/10/06 07:35:16;;;;;;;4.47;3.10;;;;;;;20.36;100.00;97581.31;5039581;28;20088;-50
2022/10/06 07:37:44;;;;;;;4.03;2.83;;;;;;;20.08;100.00;97582.84;5040125;28;20069;-48
2022/10/06 07:40:13;;;;;;;4.70;3.08;;;;;;;21.35;100.00;97583.97;5044438;28;20080;-45
2022/10/06 07:42:48;;;;;;;3.63;3.05;;;;;;;21.26;100.00;97585.88;5046422;28;20148;-48
2022/10/06 07:48:06;;;;;;;3.95;3.03;;;;;;;22.11;100.00;97579.13;5043999;28;20059;-44
2022/10/06 07:50:37;;;;;;;3.95;3.03;;;;;;;22.14;100.00;97581.44;5043173;28;20126;-45
2022/10/06 07:53:07;;;;;;;5.75;3.42;;;;;;;21.91;100.00;97583.44;5042381;28;20084;-50
2022/10/06 07:55:38;;;;;;;5.72;3.22;;;;;;;21.91;99.62;97589.66;5045536;28;20073;-47
2022/10/06 07:58:11;;;;;;;4.07;3.00;;;;;;;22.28;100.00;97587.81;5045255;28;20064;-47
2022/10/06 08:00:41;;;;;;;5.72;3.10;;;;;;;22.64;90.52;97594.97;5043267;28;20080;-47
2022/10/06 08:03:10;;;;;;;3.83;3.17;;;;;;;22.37;100.00;97591.25;5039566;28;20099;-46
2022/10/06 08:05:39;;;;;;;5.73;3.20;;;;;;;21.87;100.00;97595.59;5071989;28;20095;-49
2022/10/06 08:08:07;;;;;;;4.10;3.10;;;;;;;22.20;100.00;97596.03;5043026;28;20072;-47
2022/10/06 08:10:35;;;;;;;6.43;3.25;;;;;;;22.06;100.00;97597.69;5041101;28;20064;-49
2022/10/06 08:13:05;;;;;;;7.03;3.20;;;;;;;22.18;98.04;97598.06;5046466;28;20091;-49
2022/10/06 08:15:33;;;;;;;4.57;3.13;;;;;;;22.21;100.00;97600.38;5046151;28;20971;-47
2022/10/06 08:18:03;;;;;;;6.18;3.03;;;;;;;22.00;100.00;97612.72;5045688;28;20087;-53
2022/10/06 08:20:53;;;;;;;4.15;3.20;;;;;;;22.80;98.75;97610.84;5046451;28;20140;-50
2022/10/06 08:23:21;;;;;;;3.95;3.03;;;;;;;23.11;88.55;97615.91;5043929;28;20099;-47
2022/10/06 08:25:50;;;;;;;4.95;3.08;;;;;;;23.21;90.74;97612.88;5043571;28;20080;-49
2022/10/06 08:28:23;;;;;;;6.00;3.50;;;;;;;23.89;81.29;97613.91;5037997;28;20080;-50
2022/10/06 08:30:51;;;;;;;5.30;3.05;;;;;;;22.91;96.51;97607.63;5042122;28;20081;-50
2022/10/06 08:33:21;;;;;;;4.07;3.00;;;;;;;24.03;82.05;97603.19;5044265;28;20080;-45
2022/10/06 08:35:50;;;;;;;3.80;2.80;;;;;;;23.15;94.67;97609.09;5045811;28;20100;-46
2022/10/06 08:38:20;;;;;;;6.50;3.10;;;;;;;23.72;84.63;97604.50;5044091;28;20080;-46
2022/10/06 08:40:48;;;;;;;4.80;3.20;;;;;;;24.20;77.29;97598.25;5045126;28;20065;-48
2022/10/06 08:43:19;;;;;;;6.35;3.30;;;;;;;23.92;83.16;97613.50;5043403;28;20081;-45
2022/10/06 08:45:48;;;;;;;4.45;2.95;;;;;;;24.99;74.10;97614.59;5040589;28;20527;-48
2022/10/06 08:48:18;;;;;;;5.68;3.10;;;;;;;24.24;87.53;97608.44;5044806;28;20056;-47
2022/10/06 08:50:53;;;;;;;7.05;3.38;;;;;;;24.45;84.06;97617.44;5043066;28;20506;-48
2022/10/06 08:53:29;;;;;;;4.55;3.25;;;;;;;24.60;77.50;97621.63;5044943;28;20076;-47
2022/10/06 08:56:01;;;;;;;5.57;3.15;;;;;;;25.22;73.52;97611.47;5043919;28;20561;-47
2022/10/06 08:58:38;;;;;;;4.03;3.20;;;;;;;24.30;81.55;97614.88;5043607;28;20053;-48
2022/10/06 09:01:14;;;;;;;3.65;3.10;;;;;;;25.18;78.08;97617.50;5043767;28;20075;-47
2022/10/06 09:03:47;;;;;;;4.47;3.25;;;;;;;25.99;71.16;97623.38;5045111;28;20072;-43
2022/10/06 09:06:25;;;;;;;4.60;3.60;;;;;;;26.16;66.27;97617.47;5040580;28;20376;-45
2022/10/06 09:08:58;;;;;;;5.10;3.78;;;;;;;26.24;62.38;97615.34;5042676;28;20077;-44
2022/10/06 09:11:39;;;;;;;3.95;3.40;;;;;;;26.49;66.02;97617.31;5042674;28;20463;-46
2022/10/06 09:14:14;;;;;;;4.35;3.20;;;;;;;27.31;59.78;97620.88;5043179;28;20915;-46
2022/10/06 09:16:46;;;;;;;5.80;3.38;;;;;;;27.05;61.43;97624.63;5041862;28;20462;-46
2022/10/06 09:19:17;;;;;;;7.13;3.50;;;;;;;27.16;62.54;97629.34;5044029;28;20080;-46
2022/10/06 09:21:49;;;;;;;5.53;3.40;;;;;;;27.07;62.65;97624.38;5040137;28;20080;-46
2022/10/06 09:24:35;;;;;;;6.70;3.10;;;;;;;27.52;58.67;97616.06;5042452;28;20053;-46
2022/10/06 09:27:14;;;;;;;5.28;3.40;;;;;;;27.34;60.27;97625.84;5043948;28;20076;-51
2022/10/06 09:29:43;;;;;;;9.50;3.30;;;;;;;27.61;58.04;97622.88;5043424;28;20072;-48
2022/10/06 09:32:12;;;;;;;5.60;3.38;;;;;;;27.66;58.81;97623.81;5042980;28;20534;-47
2022/10/06 09:34:44;;;;;;;3.92;3.10;;;;;;;27.26;59.56;97626.13;5043900;28;20073;-50
2022/10/06 09:37:14;;;;;;;5.25;3.20;;;;;;;28.01;59.62;97617.00;5043335;28;20079;-49
2022/10/06 09:39:44;;;;;;;5.07;3.28;;;;;;;27.62;60.15;97622.63;5043886;28;20452;-50
2022/10/06 09:42:16;;;;;;;4.85;3.00;;;;;;;28.34;56.18;97611.97;5040572;28;20091;-45
2022/10/06 09:44:52;;;;;;;7.32;2.90;;;;;;;28.46;55.71;97612.06;5045120;28;20077;-50
2022/10/06 09:47:34;;;;;;;6.22;3.15;;;;;;;28.42;54.54;97615.47;5042665;28;20077;-48
2022/10/06 09:50:14;;;;;;;5.57;3.22;;;;;;;28.42;55.92;97620.88;5046242;28;20867;-48
2022/10/06 09:53:02;;;;;;;7.07;3.28;;;;;;;28.19;57.68;97619.72;5041149;28;20067;-43
2022/10/06 09:55:33;;;;;;;6.35;3.15;;;;;;;28.11;58.09;97625.44;5041378;28;20076;-47
2022/10/06 09:58:03;;;;;;;5.68;2.95;;;;;;;28.00;59.54;97620.78;5043903;28;20111;-48
2022/10/06 10:00:34;;;;;;;4.53;2.88;;;;;;;28.71;55.34;97611.91;5041962;28;20663;-48
2022/10/06 10:03:04;;;;;;;4.65;2.67;;;;;;;28.56;54.03;97617.78;5037606;28;20072;-48
2022/10/06 10:05:34;;;;;;;3.88;2.95;;;;;;;28.64;57.21;97616.59;5043665;28;20064;-46
2022/10/06 10:08:08;;;;;;;3.88;2.60;;;;;;;27.68;58.81;97623.63;5043171;28;20100;-45
2022/10/06 10:10:37;;;;;;;5.68;2.97;;;;;;;27.87;60.16;97625.31;5043727;28;20076;-45
2022/10/06 10:13:19;;;;;;;6.80;2.92;;;;;;;27.74;59.70;97633.56;5039227;28;20060;-47
2022/10/06 10:15:53;;;;;;;6.25;2.88;;;;;;;28.26;55.11;97625.88;5041168;28;20119;-48
2022/10/06 10:18:25;;;;;;;6.47;2.60;;;;;;;28.07;56.52;97622.34;5036357;28;20527;-45
2022/10/06 10:20:57;;;;;;;6.18;2.83;;;;;;;28.20;57.24;97625.97;5042303;28;20089;-47
2022/10/06 10:23:29;;;;;;;4.35;3.00;;;;;;;28.78;54.67;97620.78;5044612;28;20072;-43
2022/10/06 10:26:21;;;;;;;6.03;2.90;;;;;;;28.71;55.13;97622.75;5048372;28;20079;-46
2022/10/06 10:29:06;;;;;;;4.20;2.80;;;;;;;28.65;54.64;97620.97;5046904;28;20083;-49
2022/10/06 10:31:46;;;;;;;5.07;3.10;;;;;;;28.89;54.66;97629.19;5043567;28;20091;-47
2022/10/06 10:34:23;;;;;;;6.03;2.85;;;;;;;29.36;50.85;97626.56;5046348;28;20076;-46
2022/10/06 10:36:55;;;;;;;5.20;3.17;;;;;;;29.29;51.02;97619.34;5045706;28;20084;-49
2022/10/06 10:39:30;;;;;;;4.85;2.72;;;;;;;29.23;50.85;97620.28;5049773;28;20081;-50
2022/10/06 10:42:01;;;;;;;3.95;2.60;;;;;;;29.09;51.88;97627.81;5048151;28;20104;-44
2022/10/06 10:44:33;;;;;;;5.63;2.50;;;;;;;28.23;55.31;97628.22;5046081;28;20103;-45
2022/10/06 10:47:08;;;;;;;6.97;3.05;;;;;;;26.59;68.95;97636.59;5048594;28;20072;-45
2022/10/06 10:49:37;;;;;;;7.50;2.88;;;;;;;26.93;68.88;97629.06;5050612;28;20092;-50
2022/10/06 10:52:10;;;;;;;4.70;2.60;;;;;;;27.98;56.71;97637.28;5049656;28;20084;-46
2022/10/06 10:54:44;;;;;;;6.97;2.65;;;;;;;28.33;55.77;97631.22;5051666;28;20081;-44
2022/10/06 10:57:16;;;;;;;5.18;2.80;;;;;;;28.53;53.41;97630.97;5051620;28;20084;-48
2022/10/06 10:59:53;;;;;;;5.70;2.90;;;;;;;28.58;52.59;97629.19;5052162;28;20084;-46
2022/10/06 11:02:22;;;;;;;5.20;3.00;;;;;;;28.78;52.78;97633.53;5052338;28;20085;-45
2022/10/06 11:04:53;;;;;;;6.13;3.20;;;;;;;28.14;59.87;97630.41;5047725;28;20084;-48
2022/10/06 11:07:25;;;;;;;7.10;2.75;;;;;;;28.60;53.04;97618.13;5045296;28;20107;-51
2022/10/06 11:09:58;;;;;;;7.20;2.80;;;;;;;27.39;60.77;97622.44;5047804;28;20084;-46
2022/10/06 11:12:39;;;;;;;5.80;2.95;;;;;;;27.48;62.04;97620.28;5045868;28;20501;-45
2022/10/06 11:15:13;;;;;;;4.68;2.42;;;;;;;27.92;58.21;97621.91;5045117;28;20088;-45
2022/10/06 11:17:49;;;;;;;3.88;2.63;;;;;;;27.78;62.87;97620.41;5046375;28;20480;-44
2022/10/06 11:20:39;;;;;;;5.90;2.90;;;;;;;28.14;60.01;97627.69;5046031;28;20080;-45
2022/10/06 11:23:24;;;;;;;4.72;2.70;;;;;;;28.85;53.49;97618.78;5044978;28;20068;-44
2022/10/06 11:26:01;;;;;;;5.07;2.85;;;;;;;28.60;55.30;97610.00;5046375;28;20107;-48
2022/10/06 11:28:32;;;;;;;7.90;2.92;;;;;;;29.90;47.66;97611.72;5044708;28;20088;-44
2022/10/06 11:31:03;;;;;;;4.10;2.50;;;;;;;29.99;50.36;97613.00;5047708;28;20083;-50
2022/10/06 11:33:36;;;;;;;4.05;2.55;;;;;;;30.16;50.59;97614.97;5044428;28;20092;-45
2022/10/06 11:36:08;;;;;;;5.10;2.60;;;;;;;30.30;48.44;97613.66;5043175;28;20096;-44
2022/10/06 11:38:40;;;;;;;5.68;2.60;;;;;;;30.79;45.44;97602.31;5045438;28;20484;-44
2022/10/06 11:41:16;;;;;;;6.65;2.78;;;;;;;30.45;46.00;97607.66;5046171;28;20072;-47
2022/10/06 11:43:50;;;;;;;5.18;2.90;;;;;;;29.35;49.06;97612.09;5045959;28;20092;-49
2022/10/06 11:46:29;;;;;;;5.28;2.60;;;;;;;29.15;48.16;97612.47;5042769;28;20095;-46
2022/10/06 11:49:52;;;;;;;7.28;2.60;;;;;;;29.50;47.99;97608.94;5046752;28;20516;-49
2022/10/06 11:52:42;;;;;;;5.78;3.20;;;;;;;28.94;49.51;97600.25;4982825;28;20626;-48
2022/10/06 11:55:16;;;;;;;8.60;2.90;;;;;;;29.36;52.24;97594.75;4984974;28;20085;-42
2022/10/06 11:58:08;;;;;;;7.93;2.67;;;;;;;28.72;51.82;97605.41;5025192;28;20079;-48